Pahrump, Nevada Weather observations

Data are for observation ending at time listed.
 Day   Time    Ave.   Ave.  Ave.  Vector   Max.   Stn.    Total    Solar   Ave.  
  of    of     Air    Rel.  Wind   Wind    Wind   Baro.  Precip.   Rad.    Soil  
Year   Day     Temp.  Hum.  Speed  Dir.    Gust   Pres.                    Temp. 
2016   (PST)    F      %     mph   deg.    mph     mb.     in.     W/m2     F   
------------------------------------------------------------------------------
 243    8:10   86.5    16    0.1   312      0.1   924.2    0.00     137    88.5
 243    8:20   87.2    15    0.1   304      0.1   924.4    0.00       0    89.0
 243    8:30   88.6    13    0.1   284      0.1   924.6    0.00       0    89.5
 243    8:40   89.6    13    0.1   335      0.1   924.7    0.00      18    89.9
 243    8:50   90.4    13    0.3   300      1.6   924.9    0.00      29    90.4
 243    9:00   91.2    13    0.3   274      1.8   925.1    0.00       0    90.9
 243    9:10   93.3    12    0.1   282      0.1   925.2    0.00       0    91.3
 243    9:20   93.3    13    0.1   266      0.1   925.3    0.00       1    91.5
 243    9:30   94.4    13    0.1   236      0.1   925.4    0.00       0    91.7
 243    9:40   95.3    12    0.1   223      0.1   925.5    0.00       0    91.8
 243    9:50   96.4    12    0.1   217      0.1   925.5    0.00       0    91.8
 243   10:00   97.7    11    0.1   196      0.1   925.5    0.00     111    91.8
 243   10:10   98.5    11    3.4   200      7.2   925.5    0.00      43    91.8
 243   10:20   99.3    10    4.3   202      8.6   925.5    0.00      99    91.7
 243   10:30  100.1    10    3.6   209      7.6   925.4    0.00       3    91.7
 243   10:40  100.9    10    4.5   182      8.6   925.4    0.00     332    91.7
 243   10:50  100.7    10    4.3   209      8.1   925.4    0.00     903    91.6
 243   11:00  101.0    10    4.0   202     11.4   925.3    0.00       0    91.6
 243   11:10  101.0    10    5.2   258     10.6   925.1    0.00       0    91.6
 243   11:20  102.2    10    3.9   217      9.9   925.0    0.00     130    91.7
 243   11:30  101.9    10    3.3   235     10.2   924.9    0.00     363    92.0
 243   11:40  101.5    10    5.2   192     11.8   924.9    0.00     542    92.4
 243   11:50  102.1    10    3.1   211     10.4   924.8    0.00     655    92.9
 243   12:00  102.4    10    1.7   210     11.6   924.7    0.00      14    93.5
 243   12:10  102.8     9    0.1   182      1.3   924.6    0.00      90    94.2
 243   12:20  102.5     9    4.2   234     17.8   924.5    0.00      47    94.9
 243   12:30  103.1     9    4.6   201     16.6   924.4    0.00     159    95.5
 243   12:40  103.3     9    8.4   262     19.1   924.4    0.00       0    96.1
 243   12:50  103.5     9    8.6   180     14.9   924.3    0.00     274    96.8
 243   13:00  103.0     9    4.3   193      9.3   924.1    0.00      53    97.3
 243   13:10  103.4     9    6.8   189     12.4   924.0    0.00       0    97.8
 243   13:20  103.6     9    9.4   178     14.8   923.9    0.00     350    98.2
 243   13:30  102.7     9   11.3   152     19.6   923.7    0.00     809    98.6
 243   13:40  103.7     8    8.2   156     15.7   923.5    0.00     270    99.0
 243   13:50  103.8     8   10.8   178     19.7   923.5    0.00       0    99.2
 243   14:00  103.6     8    6.6   197     15.3   923.4    0.00       0    99.4
 243   14:10  103.6     8    9.2   180     19.0   923.2    0.00     241    99.6
 243   14:20  103.2     8    9.3   188     19.0   923.1    0.00     339    99.7
 243   14:30  103.6     8    9.4   180     17.5   923.0    0.00       1    99.9
 243   14:40  103.4     8    9.2   171     21.5   922.9    0.00       0    100.0
 243   14:50  102.7     9    9.0   182     16.9   922.9    0.00       8    100.1
 243   15:00  102.8     9    8.6   181     16.6   922.7    0.00     509    100.2
 243   15:10  103.3     9    6.7   188     14.4   922.6    0.00      84    100.2
 243   15:20  103.4     9    9.9   188     19.2   922.5    0.00       8    100.1
 243   15:30  103.2     9    6.9   187     12.0   922.4    0.00       1    100.1
 243   15:40  103.5     9   10.7   179     18.2   922.4    0.00       0    100.0
 243   15:50  103.0     9   10.8   171     17.5   922.3    0.00       0    99.9
 243   16:00  103.2     9    9.0   170     17.0   922.3    0.00       0    99.8
 243   16:10  103.3     9    7.9   184     27.3   922.2    0.00       0    99.7
 243   16:20  102.9     8    7.0   188     12.0   922.1    0.00     236    99.6
 243   16:30  102.7     9    9.0   166     14.5   922.0    0.00     261    99.4
 243   16:40  102.4     9    6.0   197     15.3   922.0    0.00     161    99.3
 243   16:50  102.1     9    6.9   186     13.4   922.0    0.00      50    99.1
 243   17:00  101.8     9    7.4   178     13.5   921.8    0.00       0    98.9
 243   17:10  101.4     9    8.3   179     13.9   921.7    0.00       0    98.8
 243   17:20  100.7    10    9.5   182     16.4   921.6    0.00       0    98.6
 243   17:30  100.2    10    9.9   176     15.0   921.4    0.00       0    98.5
 243   17:40  100.2    10    7.5   182     11.5   921.2    0.00       0    98.3
 243   17:50   99.6    10    7.9   175     12.5   921.2    0.00       0    98.0
 243   18:00   99.0    10    7.6   178     12.1   921.1    0.00       0    97.9
 243   18:10   98.4    10    8.1   176     12.2   921.0    0.00       0    97.7
 243   18:20   97.8    10    6.8   173      9.9   920.9    0.00       0    97.5
 243   18:30   96.9    10    6.2   175      9.7   920.9    0.00       0    97.3
 243   18:40   96.3    11    6.8   171     10.5   920.8    0.00       0    97.1
 243   18:50   96.1    10    6.5   163      9.6   920.8    0.00       0    96.9
 243   19:00   95.7    11    6.0   168      9.9   920.9    0.00       0    96.8
 243   19:10   95.3    11    7.0   160      9.9   921.0    0.00       0    96.6
 243   19:20   95.1    11    7.3   174     10.9   921.0    0.00       0    96.4
 243   19:30   94.2    11    6.7   176      9.3   921.1    0.00       0    96.1
 243   19:40   93.7    11    5.9   176      8.7   921.2    0.00       0    95.9
 243   19:50   93.4    12    5.5   174      8.8   921.2    0.00       0    95.7
 243   20:00   93.8    12    6.1   165     10.7   921.2    0.00       0    95.6
 243   20:10   93.3    12    4.7   185      9.6   921.3    0.00       0    95.4
 243   20:20   91.7    13    5.8   175      8.6   921.3    0.00       0    95.2
 243   20:30   91.6    13    4.9   173      7.0   921.3    0.00       0    95.1
 243   20:40   92.2    13    4.8   163      7.1   921.3    0.00       0    94.9
 243   20:50   92.3    13    3.7   174      6.0   921.2    0.00       0    94.7
 243   21:00   88.8    15    1.8   219      3.7   921.2    0.00       0    94.6
 243   21:10   87.0    16    2.8   206      6.5   921.1    0.00       0    94.4
 243   21:20   88.2    14    4.0   189      6.6   921.0    0.00       0    94.2
 243   21:30   88.1    14    4.6   175      6.1   920.9    0.00       0    94.0
 243   21:40   88.6    14    3.8   176      5.8   920.8    0.00       0    93.8
 243   21:50   88.6    15    3.5   196      6.5   920.8    0.00       0    93.7
 243   22:00   87.5    15    4.7   171      6.8   920.8    0.00       0    93.5
 243   22:10   88.0    14    4.5   174      6.3   920.8    0.00       0    93.3
 243   22:20   88.1    15    4.1   184      7.2   920.8    0.00       0    93.2
 243   22:30   87.8    15    6.7   149     10.9   920.8    0.00       0    93.0
 243   22:40   90.4    13    9.9   142     12.1   920.9    0.00       0    92.9
 243   22:50   90.9    13   10.0   141     13.1   921.0    0.00       0    92.7
 243   23:00   91.2    13    8.7   144     11.4   921.2    0.00       0    92.6
 243   23:10   91.6    13    9.4   143     13.4   921.3    0.00       0    92.5
 243   23:20   91.8    13   10.9   142     14.0   921.3    0.00       0    92.4
 243   23:30   91.5    13    9.7   142     13.6   921.4    0.00       0    92.3
 243   23:40   91.3    13    9.2   142     13.2   921.4    0.00       0    92.2
 243   23:50   90.8    13    7.5   144     12.9   921.5    0.00       0    92.1
 244    0:00   86.3    16    2.6   288      5.6   921.4    0.00       0    92.1
 244    0:10   80.0    20    2.8   314      6.1   921.3    0.00       0    92.0
 244    0:20   79.3    19    3.0   325      5.6   920.9    0.00       0    91.9
 244    0:30   79.0    19    2.4   324      4.4   920.7    0.00       0    91.8
 244    0:40   78.8    19    1.5   326      3.4   920.6    0.00       0    91.7
 244    0:50   78.5    20    1.0   355      2.1   920.6    0.00       0    91.5
 244    1:00   78.8    19    3.1    61      4.7   920.4    0.00       0    91.3
 244    1:10   78.9    20    1.6   102      4.4   920.4    0.00       0    91.1
 244    1:20   78.9    19    0.0     0      0.0   920.3    0.00       0    90.9
 244    1:30   79.7    19    0.0     0      0.0   920.3    0.00       0    90.8
 244    1:40   80.1    19    0.0   172      0.1   920.1    0.00       0    90.6
 244    1:50   82.1    18    0.0   171      0.1   920.1    0.00       0    90.4
 244    2:00   83.5    17    0.4   161      5.0   920.2    0.00       0    90.2
 244    2:10   80.4    20    0.4   213      3.2   920.4    0.00       0    90.1
 244    2:20   76.3    24    0.1   280      0.1   920.4    0.00       0    89.9
 244    2:30   75.4    24    0.1   294      0.1   920.2    0.00       0    89.8
 244    2:40   75.5    23    0.0   315      0.1   920.1    0.00       0    89.7
 244    2:50   76.0    23    0.0   306      0.1   920.0    0.00       0    89.5
 244    3:00   75.5    24    0.1   260      0.1   919.9    0.00       0    89.4
 244    3:10   73.5    26    0.1   267      0.1   919.9    0.00       0    89.2
 244    3:20   73.6    26    0.1   230      0.1   919.9    0.00       0    89.1
 244    3:30   74.5    24    0.0   214      0.1   919.8    0.00       0    88.9
 244    3:40   75.2    24    0.0   224      0.1   919.7    0.00       0    88.8
 244    3:50   75.5    23    0.0   220      0.1   919.6    0.00       0    88.6
 244    4:00   75.8    24    0.0   222      0.1   919.7    0.00       0    88.5
 244    4:10   75.7    24    0.0   210      0.1   919.8    0.00       0    88.3
 244    4:20   75.1    24    0.0     0      0.0   919.8    0.00       0    88.2
 244    4:30   75.1    23    0.0   192      0.1   919.8    0.00       0    88.0
 244    4:40   75.2    23    0.0   262      0.1   919.8    0.00       0    87.9
 244    4:50   75.2    23    0.0     0      0.0   919.9    0.00       0    87.8
 244    5:00   75.7    22    0.0   254      0.1   919.9    0.00       0    87.6
 244    5:10   75.7    23    0.0   337      0.1   919.9    0.00       3    87.5
 244    5:20   74.8    24    0.0   249      0.1   920.0    0.00       4    87.4
 244    5:30   75.0    22    0.0     0      0.0   920.1    0.00      10    87.3
 244    5:40   75.2    23    0.0   331      0.1   920.2    0.00      14    87.2
 244    5:50   75.0    23    0.0   330      0.1   920.2    0.00      31    87.0
 244    6:00   76.1    22    0.0   302      0.1   920.3    0.00      65    86.9
 244    6:10   77.4    21    0.0   268      0.1   920.4    0.00      82    86.8
 244    6:20   78.7    21    0.0   319      0.1   920.7    0.00     126    86.8
 244    6:30   78.5    22    0.1   299      0.1   920.9    0.00     175    86.7
 244    6:40   78.1    22    0.1   283      0.1   921.1    0.00     210    86.8
 244    6:50   78.5    22    0.1   315      0.1   921.3    0.00     150    86.9
 244    7:00   80.3    20    0.0   310      0.1   921.5    0.00      96    87.0
 244    7:10   81.8    19    0.0   346      0.1   921.7    0.00      15    87.2
 244    7:20   82.9    18    0.0   356      0.1   921.9    0.00      55    87.5
 244    7:30   84.1    18    0.5    39      2.0   922.1    0.00       0    87.7
 244    7:40   84.6    18    1.4    50      3.0   922.3    0.00       0    88.0
 244    7:50   85.2    17    2.0    71      3.1   922.4    0.00       0    88.4
 244    8:00   86.6    16    1.3    53      3.0   922.6    0.00       0    88.8

Return to Pahrump, Nevada graphs page.


Western Regional Climate Center,wrcc@dri.edu